createdAt,value
2019-03-19T00:00:17.154Z,2.17
2019-03-19T00:02:45.954Z,2.00
2019-03-19T00:05:13.136Z,1.85
2019-03-19T00:07:40.159Z,2.30
2019-03-19T00:10:08.372Z,2.08
2019-03-19T00:12:35.401Z,1.75
2019-03-19T00:15:02.567Z,1.85
2019-03-19T00:17:29.655Z,1.70
2019-03-19T00:19:56.847Z,1.70
2019-03-19T00:22:25.800Z,1.60
2019-03-19T00:24:52.985Z,1.70
2019-03-19T00:27:20.202Z,1.90
2019-03-19T00:29:47.382Z,1.45
2019-03-19T00:32:14.429Z,1.42
2019-03-19T00:34:42.473Z,1.90
2019-03-19T00:37:09.487Z,1.42
2019-03-19T00:39:36.562Z,1.40
2019-03-19T00:42:03.672Z,1.40
2019-03-19T00:44:30.852Z,1.47
2019-03-19T00:46:57.901Z,1.35
2019-03-19T00:49:24.961Z,1.65
2019-03-19T00:51:51.965Z,1.22
2019-03-19T00:54:19.053Z,1.77
2019-03-19T00:56:46.017Z,1.17
2019-03-19T00:59:13.049Z,1.65
2019-03-19T01:01:40.140Z,1.32
2019-03-19T01:04:07.314Z,1.30
2019-03-19T01:06:34.441Z,1.52
2019-03-19T01:09:01.470Z,1.10
2019-03-19T01:11:28.811Z,1.20
2019-03-19T01:13:56.403Z,1.22
2019-03-19T01:16:23.394Z,1.20
2019-03-19T01:18:50.513Z,1.10
2019-03-19T01:21:17.539Z,1.20
2019-03-19T01:23:44.621Z,1.10
2019-03-19T01:26:11.638Z,0.80
2019-03-19T01:28:38.754Z,0.90
2019-03-19T01:31:05.815Z,1.10
2019-03-19T01:33:32.838Z,0.90
2019-03-19T01:35:59.859Z,0.80
2019-03-19T01:38:27.834Z,1.07
2019-03-19T01:40:54.865Z,0.98
2019-03-19T01:43:21.962Z,0.90
2019-03-19T01:45:48.967Z,0.68
2019-03-19T01:48:16.033Z,1.00
2019-03-19T01:50:43.071Z,0.90
2019-03-19T01:53:10.127Z,1.00
2019-03-19T01:55:37.137Z,0.82
2019-03-19T01:58:04.717Z,1.00
2019-03-19T02:00:31.764Z,1.20
2019-03-19T02:02:58.804Z,0.90
2019-03-19T02:05:25.825Z,1.00
2019-03-19T02:07:52.880Z,0.85
2019-03-19T02:10:19.951Z,0.80
2019-03-19T02:12:48.155Z,0.90
2019-03-19T02:15:16.089Z,0.93
2019-03-19T02:17:43.408Z,0.80
2019-03-19T02:20:15.379Z,0.90
2019-03-19T02:22:42.441Z,1.00
2019-03-19T02:25:09.970Z,0.62
2019-03-19T02:27:38.053Z,0.50
2019-03-19T02:30:08.719Z,0.82
2019-03-19T02:32:35.761Z,0.60
2019-03-19T02:35:04.530Z,0.70
2019-03-19T02:37:31.577Z,1.80
2019-03-19T02:39:58.655Z,0.70
2019-03-19T02:42:25.812Z,0.90
2019-03-19T02:44:52.965Z,0.70
2019-03-19T02:47:20.059Z,0.60
2019-03-19T02:49:47.118Z,0.53
2019-03-19T02:52:14.115Z,0.50
2019-03-19T02:54:46.556Z,0.60
2019-03-19T02:57:13.566Z,0.70
2019-03-19T02:59:40.709Z,0.70
2019-03-19T03:02:07.737Z,0.40
2019-03-19T03:04:36.001Z,0.53
2019-03-19T03:07:03.050Z,0.40
2019-03-19T03:09:30.142Z,0.50
2019-03-19T03:11:58.354Z,0.65
2019-03-19T03:14:27.981Z,0.60
2019-03-19T03:16:55.508Z,0.50
2019-03-19T03:19:25.031Z,0.55
2019-03-19T03:21:51.976Z,0.37
2019-03-19T03:24:19.012Z,0.40
2019-03-19T03:26:48.150Z,0.40
2019-03-19T03:29:15.085Z,0.70
2019-03-19T03:31:42.189Z,0.50
2019-03-19T03:34:09.274Z,0.60
2019-03-19T03:36:37.381Z,0.50
2019-03-19T03:39:06.091Z,0.50
2019-03-19T03:41:33.365Z,0.50
2019-03-19T03:44:00.375Z,0.50
2019-03-19T03:46:27.512Z,0.50
2019-03-19T03:48:54.561Z,0.55
2019-03-19T03:51:21.718Z,0.40
2019-03-19T03:53:49.275Z,0.50
2019-03-19T03:56:16.339Z,0.37
2019-03-19T03:58:43.537Z,0.47
2019-03-19T04:01:10.671Z,0.55
2019-03-19T04:03:37.715Z,0.50
2019-03-19T04:06:04.792Z,0.55
2019-03-19T04:08:31.785Z,0.60
2019-03-19T04:10:58.905Z,0.65
2019-03-19T04:13:25.924Z,1.00
2019-03-19T04:15:52.935Z,0.62
2019-03-19T04:18:19.928Z,0.60
2019-03-19T04:20:47.059Z,0.40
2019-03-19T04:23:14.416Z,0.40
2019-03-19T04:25:41.612Z,0.60
2019-03-19T04:28:11.214Z,0.45
2019-03-19T04:30:38.473Z,0.50
2019-03-19T04:33:05.535Z,0.33
2019-03-19T04:35:32.680Z,0.42
2019-03-19T04:37:59.668Z,0.60
2019-03-19T04:40:26.715Z,0.50
2019-03-19T04:42:53.736Z,0.40
2019-03-19T04:45:20.796Z,0.30
2019-03-19T04:47:47.813Z,0.42
2019-03-19T04:50:15.709Z,0.40
2019-03-19T04:52:42.707Z,0.60
2019-03-19T04:55:11.084Z,0.40
2019-03-19T04:57:38.043Z,0.50
2019-03-19T05:00:10.893Z,0.70
2019-03-19T05:02:37.983Z,0.50
2019-03-19T05:05:07.708Z,0.60
2019-03-19T05:07:34.777Z,0.55
2019-03-19T05:10:02.387Z,0.40
2019-03-19T05:12:30.460Z,0.40
2019-03-19T05:14:57.514Z,0.70
2019-03-19T05:17:24.594Z,0.60
2019-03-19T05:19:51.609Z,0.65
2019-03-19T05:22:18.710Z,0.62
2019-03-19T05:24:45.732Z,0.70
2019-03-19T05:27:14.060Z,0.60
2019-03-19T05:29:41.268Z,0.80
2019-03-19T05:32:09.158Z,0.80
2019-03-19T05:34:36.276Z,0.80
2019-03-19T05:37:03.501Z,0.62
2019-03-19T05:39:30.571Z,1.10
2019-03-19T05:41:58.617Z,0.98
2019-03-19T05:44:26.630Z,0.80
2019-03-19T05:46:53.725Z,0.85
2019-03-19T05:49:20.906Z,0.88
2019-03-19T05:51:47.995Z,0.88
2019-03-19T05:54:15.151Z,0.68
2019-03-19T05:56:42.265Z,0.80
2019-03-19T05:59:09.309Z,0.90
2019-03-19T06:01:38.649Z,1.05
2019-03-19T06:04:05.665Z,0.80
2019-03-19T06:06:32.826Z,0.82
2019-03-19T06:08:59.910Z,0.70
2019-03-19T06:11:27.207Z,0.98
2019-03-19T06:13:54.353Z,1.07
2019-03-19T06:16:25.943Z,1.17
2019-03-19T06:18:58.846Z,1.30
2019-03-19T06:21:27.113Z,1.20
2019-03-19T06:23:54.265Z,1.12
2019-03-19T06:26:21.339Z,1.37
2019-03-19T06:28:48.435Z,1.32
2019-03-19T06:31:15.569Z,1.15
2019-03-19T06:33:42.800Z,1.17
2019-03-19T06:36:09.929Z,1.00
2019-03-19T06:38:37.069Z,1.17
2019-03-19T06:41:04.238Z,1.40
2019-03-19T06:43:32.089Z,1.30
2019-03-19T06:45:59.184Z,1.02
2019-03-19T06:48:26.213Z,1.07
2019-03-19T06:50:53.225Z,1.32
2019-03-19T06:53:20.243Z,1.05
2019-03-19T06:55:47.869Z,0.93
2019-03-19T06:58:15.406Z,1.20
2019-03-19T07:00:42.477Z,1.40
2019-03-19T07:03:09.726Z,1.42
2019-03-19T07:05:36.690Z,1.40
2019-03-19T07:08:03.817Z,1.35
2019-03-19T07:10:30.955Z,1.47
2019-03-19T07:12:58.045Z,1.40
2019-03-19T07:15:25.102Z,1.70
2019-03-19T07:17:52.190Z,1.75
2019-03-19T07:20:23.186Z,1.52
2019-03-19T07:22:50.369Z,2.22
2019-03-19T07:25:17.333Z,3.52
2019-03-19T07:27:44.345Z,3.08
2019-03-19T07:30:14.599Z,2.87
2019-03-19T07:32:41.678Z,4.47
2019-03-19T07:35:11.135Z,3.20
2019-03-19T07:37:38.284Z,3.70
2019-03-19T07:40:10.626Z,4.28
2019-03-19T07:42:37.661Z,3.75
2019-03-19T07:45:08.122Z,4.83
2019-03-19T07:47:35.189Z,3.45
2019-03-19T07:50:02.484Z,1.90
2019-03-19T07:52:29.497Z,2.20
2019-03-19T07:54:56.581Z,1.50
2019-03-19T07:57:23.577Z,0.90
2019-03-19T07:59:50.746Z,0.80
2019-03-19T08:02:18.484Z,0.60
2019-03-19T08:04:45.629Z,0.80
2019-03-19T08:07:12.615Z,0.90
2019-03-19T08:09:39.783Z,0.72
2019-03-19T08:12:06.920Z,0.60
2019-03-19T08:14:34.043Z,0.60
2019-03-19T08:17:03.297Z,0.70
2019-03-19T08:19:30.365Z,0.70
2019-03-19T08:21:57.338Z,0.60
2019-03-19T08:24:24.489Z,0.60
2019-03-19T08:26:51.580Z,0.62
2019-03-19T08:29:18.721Z,0.40
2019-03-19T08:31:45.866Z,0.60
2019-03-19T08:34:13.098Z,0.68
2019-03-19T08:36:40.311Z,0.60
2019-03-19T08:39:07.582Z,1.02
2019-03-19T08:41:35.520Z,0.60
2019-03-19T08:44:03.834Z,0.80
2019-03-19T08:46:30.973Z,0.47
2019-03-19T08:48:58.314Z,0.50
2019-03-19T08:51:26.277Z,0.50
2019-03-19T08:53:53.360Z,0.37
2019-03-19T08:56:21.225Z,0.70
2019-03-19T08:58:48.257Z,0.50
2019-03-19T09:01:15.286Z,0.70
2019-03-19T09:03:42.321Z,0.62
2019-03-19T09:06:09.466Z,0.50
2019-03-19T09:08:36.438Z,0.78
2019-03-19T09:11:03.512Z,0.60
2019-03-19T09:13:30.559Z,0.57
2019-03-19T09:15:59.508Z,0.57
2019-03-19T09:18:26.497Z,0.60
2019-03-19T09:20:54.146Z,0.50
2019-03-19T09:23:21.278Z,0.55
2019-03-19T09:25:48.446Z,0.40
2019-03-19T09:28:17.793Z,0.37
2019-03-19T09:30:44.958Z,0.62
2019-03-19T09:33:12.000Z,0.47
2019-03-19T09:35:39.033Z,0.30
2019-03-19T09:38:06.055Z,0.40
2019-03-19T09:40:34.201Z,0.30
2019-03-19T09:43:01.285Z,0.40
2019-03-19T09:45:28.322Z,0.40
2019-03-19T09:47:55.422Z,0.40
2019-03-19T09:50:24.226Z,0.42
2019-03-19T09:52:51.313Z,0.45
2019-03-19T09:55:18.325Z,0.50
2019-03-19T09:57:45.394Z,0.47
2019-03-19T10:00:18.553Z,0.42
2019-03-19T10:02:45.773Z,0.40
2019-03-19T10:05:13.168Z,0.55
2019-03-19T10:07:41.836Z,0.28
2019-03-19T10:10:15.153Z,0.37
2019-03-19T10:12:42.272Z,0.20
2019-03-19T10:15:09.610Z,0.40
2019-03-19T10:17:37.918Z,0.30
2019-03-19T10:20:08.601Z,0.30
2019-03-19T10:22:35.723Z,0.30
2019-03-19T10:25:05.883Z,0.40
2019-03-19T10:27:33.051Z,0.40
2019-03-19T10:30:00.322Z,0.30
2019-03-19T10:32:27.417Z,0.30
2019-03-19T10:34:54.569Z,0.25
2019-03-19T10:37:21.663Z,0.60
2019-03-19T10:39:48.685Z,0.40
2019-03-19T10:42:15.705Z,0.30
2019-03-19T10:44:43.028Z,0.30
2019-03-19T10:47:10.032Z,0.30
2019-03-19T10:49:37.156Z,0.40
2019-03-19T10:52:04.169Z,0.30
2019-03-19T10:54:32.290Z,0.23
2019-03-19T10:56:59.326Z,0.37
2019-03-19T10:59:26.323Z,0.25
2019-03-19T11:01:53.362Z,0.28
2019-03-19T11:04:20.366Z,0.20
2019-03-19T11:06:49.453Z,0.35
2019-03-19T11:09:16.629Z,0.30
2019-03-19T11:11:43.816Z,0.47
2019-03-19T11:14:10.994Z,0.35
2019-03-19T11:16:38.033Z,0.50
2019-03-19T11:19:04.989Z,0.42
2019-03-19T11:21:32.111Z,0.50
2019-03-19T11:24:00.153Z,0.80
2019-03-19T11:26:27.193Z,0.60
2019-03-19T11:28:54.185Z,1.00
2019-03-19T11:31:21.427Z,1.25
2019-03-19T11:33:48.817Z,0.78
2019-03-19T11:36:16.373Z,0.50
2019-03-19T11:38:44.045Z,0.60
2019-03-19T11:41:13.315Z,0.70
2019-03-19T11:43:40.498Z,0.40
2019-03-19T11:46:07.696Z,1.07
2019-03-19T11:48:34.936Z,0.80
2019-03-19T11:51:02.188Z,0.68
2019-03-19T11:53:30.306Z,0.65
2019-03-19T11:55:57.502Z,0.60
2019-03-19T11:58:24.550Z,0.60
2019-03-19T12:01:02.565Z,0.80
2019-03-19T12:03:29.686Z,0.60
2019-03-19T12:05:56.831Z,0.90
2019-03-19T12:08:23.889Z,1.02
2019-03-19T12:10:50.883Z,1.70
2019-03-19T12:13:19.167Z,1.90
2019-03-19T12:15:46.165Z,1.60
2019-03-19T12:18:13.208Z,1.27
2019-03-19T12:20:40.227Z,1.30
2019-03-19T12:23:07.271Z,1.00
2019-03-19T12:25:34.312Z,1.17
2019-03-19T12:28:01.457Z,1.07
2019-03-19T12:30:28.543Z,0.90
2019-03-19T12:32:55.761Z,0.95
2019-03-19T12:35:22.732Z,0.60
2019-03-19T12:37:49.854Z,0.98
2019-03-19T12:40:20.835Z,1.00
2019-03-19T12:42:48.368Z,1.12
2019-03-19T12:45:19.311Z,1.12
2019-03-19T12:47:46.749Z,0.90
2019-03-19T12:50:20.347Z,0.98
2019-03-19T12:52:47.625Z,1.00
2019-03-19T12:55:15.593Z,1.17
2019-03-19T12:57:42.916Z,1.10
2019-03-19T13:00:33.391Z,1.07
2019-03-19T13:02:52.733Z,0.93
2019-03-19T13:05:22.401Z,1.35
2019-03-19T13:07:48.710Z,0.82
2019-03-19T13:10:20.805Z,0.70
2019-03-19T13:12:47.794Z,0.85
2019-03-19T13:15:15.935Z,1.57
2019-03-19T13:17:43.042Z,0.80
2019-03-19T13:20:23.091Z,1.27
2019-03-19T13:22:50.219Z,0.80
2019-03-19T13:25:21.184Z,1.40
2019-03-19T13:27:48.310Z,0.90
2019-03-19T13:30:18.067Z,1.00
2019-03-19T13:32:45.430Z,1.00
2019-03-19T13:35:14.791Z,0.60
2019-03-19T13:37:43.430Z,0.80
2019-03-19T13:40:15.453Z,0.78
2019-03-19T13:42:44.017Z,1.00
2019-03-19T13:45:19.845Z,0.70
2019-03-19T13:47:47.211Z,0.82
2019-03-19T13:50:16.209Z,0.75
2019-03-19T13:52:43.477Z,1.30
2019-03-19T13:55:13.925Z,0.93
2019-03-19T13:57:41.245Z,1.20
2019-03-19T14:00:10.971Z,1.10
2019-03-19T14:02:38.333Z,1.25
2019-03-19T14:05:08.212Z,0.98
2019-03-19T14:07:35.355Z,0.70
2019-03-19T14:10:08.600Z,0.90
2019-03-19T14:12:36.506Z,1.02
2019-03-19T14:15:07.201Z,0.82
2019-03-19T14:17:34.354Z,0.70
2019-03-19T14:20:01.405Z,0.80
2019-03-19T14:22:29.529Z,0.82
2019-03-19T14:24:56.616Z,0.60
2019-03-19T14:27:24.763Z,0.42
2019-03-19T14:29:51.989Z,0.80
2019-03-19T14:32:19.229Z,0.30
2019-03-19T14:34:46.505Z,0.25
2019-03-19T14:37:14.673Z,0.30
2019-03-19T14:39:42.125Z,0.30
2019-03-19T14:42:09.265Z,0.40
2019-03-19T14:44:36.517Z,0.60
2019-03-19T14:47:03.757Z,0.40
2019-03-19T14:49:30.946Z,0.40
2019-03-19T14:51:58.109Z,0.30
2019-03-19T14:54:25.207Z,0.30
2019-03-19T14:56:52.241Z,0.30
2019-03-19T14:59:19.266Z,0.37
2019-03-19T15:01:46.269Z,0.60
2019-03-19T15:04:13.345Z,0.70
2019-03-19T15:06:40.380Z,0.70
2019-03-19T15:09:07.402Z,0.70
2019-03-19T15:11:34.465Z,0.50
2019-03-19T15:14:01.522Z,0.40
2019-03-19T15:16:28.569Z,0.70
2019-03-19T15:18:55.626Z,0.80
2019-03-19T15:21:22.632Z,0.90
2019-03-19T15:23:49.808Z,0.60
2019-03-19T15:26:16.823Z,0.47
2019-03-19T15:28:44.670Z,0.40
2019-03-19T15:31:11.689Z,0.53
2019-03-19T15:33:38.781Z,0.50
2019-03-19T15:36:05.860Z,0.40
2019-03-19T15:38:33.033Z,0.60
2019-03-19T15:41:00.272Z,0.60
2019-03-19T15:43:27.358Z,0.57
2019-03-19T15:45:55.313Z,0.40
2019-03-19T15:48:22.497Z,0.42
2019-03-19T15:50:49.789Z,0.50
2019-03-19T15:53:16.925Z,0.50
2019-03-19T15:55:44.177Z,0.40
2019-03-19T15:58:11.341Z,0.30
2019-03-19T16:00:38.515Z,0.57
2019-03-19T16:03:05.621Z,0.40
2019-03-19T16:05:35.333Z,0.30
2019-03-19T16:08:02.494Z,0.30
2019-03-19T16:10:29.716Z,0.40
2019-03-19T16:12:56.782Z,0.47
2019-03-19T16:15:23.941Z,0.60
2019-03-19T16:17:52.020Z,0.50
2019-03-19T16:20:20.018Z,0.60
2019-03-19T16:22:47.163Z,0.60
2019-03-19T16:25:14.359Z,0.40
2019-03-19T16:27:43.862Z,0.50
2019-03-19T16:30:16.636Z,0.50
2019-03-19T16:32:43.777Z,0.40
2019-03-19T16:35:11.423Z,0.33
2019-03-19T16:37:38.448Z,0.40
2019-03-19T16:40:09.191Z,1.30
2019-03-19T16:42:36.150Z,0.70
2019-03-19T16:45:05.258Z,0.82
2019-03-19T16:47:32.244Z,1.35
2019-03-19T16:49:59.630Z,0.80
2019-03-19T16:52:26.619Z,0.60
2019-03-19T16:54:53.814Z,0.50
2019-03-19T16:57:20.809Z,0.50
2019-03-19T16:59:47.988Z,0.62
2019-03-19T17:02:14.986Z,0.50
2019-03-19T17:04:42.288Z,0.50
2019-03-19T17:07:09.277Z,0.40
2019-03-19T17:09:36.413Z,0.60
2019-03-19T17:12:03.384Z,0.40
2019-03-19T17:14:30.684Z,0.50
2019-03-19T17:16:58.437Z,0.60
2019-03-19T17:19:26.769Z,0.50
2019-03-19T17:21:53.750Z,0.60
2019-03-19T17:24:22.070Z,1.30
2019-03-19T17:26:51.380Z,1.12
2019-03-19T17:29:20.046Z,1.00
2019-03-19T17:31:47.033Z,0.62
2019-03-19T17:34:14.218Z,1.30
2019-03-19T17:36:41.225Z,1.20
2019-03-19T17:39:08.395Z,0.82
2019-03-19T17:41:35.468Z,0.90
2019-03-19T17:44:02.493Z,0.70
2019-03-19T17:46:29.477Z,0.60
2019-03-19T17:48:57.057Z,1.07
2019-03-19T17:51:24.037Z,0.78
2019-03-19T17:53:51.158Z,0.80
2019-03-19T17:56:20.441Z,0.98
2019-03-19T17:58:47.490Z,0.70
2019-03-19T18:01:17.590Z,0.80
2019-03-19T18:03:43.357Z,0.75
2019-03-19T18:06:11.445Z,1.12
2019-03-19T18:08:38.537Z,1.30
2019-03-19T18:11:05.507Z,1.15
2019-03-19T18:13:32.603Z,0.93
2019-03-19T18:15:59.569Z,1.20
2019-03-19T18:18:26.714Z,1.10
2019-03-19T18:20:53.635Z,0.70
2019-03-19T18:23:20.681Z,0.78
2019-03-19T18:25:47.796Z,0.90
2019-03-19T18:28:14.955Z,0.55
2019-03-19T18:30:42.065Z,0.62
2019-03-19T18:33:09.116Z,0.50
2019-03-19T18:35:36.453Z,0.50
2019-03-19T18:38:03.533Z,0.37
2019-03-19T18:40:30.548Z,0.80
2019-03-19T18:42:57.720Z,0.80
2019-03-19T18:45:24.734Z,0.42
2019-03-19T18:47:51.795Z,0.40
2019-03-19T18:50:21.301Z,0.50
2019-03-19T18:52:48.405Z,0.35
2019-03-19T18:55:15.629Z,0.35
2019-03-19T18:57:42.814Z,0.30
2019-03-19T19:00:18.788Z,0.50
2019-03-19T19:02:50.261Z,0.40
2019-03-19T19:05:15.845Z,0.40
2019-03-19T19:07:42.936Z,0.40
2019-03-19T19:10:13.624Z,0.55
2019-03-19T19:12:40.750Z,0.40
2019-03-19T19:15:14.878Z,0.50
2019-03-19T19:17:41.902Z,0.60
2019-03-19T19:20:11.306Z,0.60
2019-03-19T19:22:38.610Z,0.40
2019-03-19T19:25:09.037Z,0.50
2019-03-19T19:27:36.080Z,0.50
2019-03-19T19:30:12.491Z,0.47
2019-03-19T19:32:39.699Z,0.30
2019-03-19T19:35:06.787Z,0.40
2019-03-19T19:37:33.865Z,0.50
2019-03-19T19:40:00.836Z,0.40
2019-03-19T19:42:27.853Z,0.68
2019-03-19T19:44:55.225Z,0.50
2019-03-19T19:47:22.421Z,0.40
2019-03-19T19:49:55.188Z,0.30
2019-03-19T19:52:22.511Z,0.40
2019-03-19T19:54:50.829Z,0.40
2019-03-19T19:57:18.125Z,0.57
2019-03-19T19:59:45.394Z,0.57
2019-03-19T20:02:12.671Z,0.40
2019-03-19T20:04:40.761Z,0.70
2019-03-19T20:07:07.816Z,0.35
2019-03-19T20:09:34.819Z,0.50
2019-03-19T20:12:01.883Z,0.30
2019-03-19T20:14:29.826Z,0.30
2019-03-19T20:16:57.881Z,0.23
2019-03-19T20:19:24.922Z,0.20
2019-03-19T20:21:52.389Z,0.20
2019-03-19T20:24:20.221Z,0.30
2019-03-19T20:26:48.804Z,0.20
2019-03-19T20:29:15.961Z,0.10
2019-03-19T20:31:43.348Z,0.20
2019-03-19T20:34:10.740Z,0.23
2019-03-19T20:36:37.985Z,0.20
2019-03-19T20:39:06.263Z,0.30
2019-03-19T20:41:35.641Z,0.30
2019-03-19T20:44:03.763Z,0.10
2019-03-19T20:46:31.851Z,0.25
2019-03-19T20:48:58.965Z,0.20
2019-03-19T20:51:27.109Z,0.30
2019-03-19T20:53:54.239Z,0.20
2019-03-19T20:56:21.357Z,0.20
2019-03-19T20:58:48.562Z,0.20
2019-03-19T21:01:15.726Z,0.20
2019-03-19T21:03:42.717Z,0.33
2019-03-19T21:06:09.813Z,0.17
2019-03-19T21:08:36.781Z,0.20
2019-03-19T21:11:05.073Z,0.20
2019-03-19T21:13:33.057Z,0.20
2019-03-19T21:16:02.304Z,0.10
2019-03-19T21:18:29.510Z,0.10
2019-03-19T21:20:56.727Z,0.30
2019-03-19T21:23:24.033Z,0.10
2019-03-19T21:25:51.109Z,0.10
2019-03-19T21:28:18.152Z,0.13
2019-03-19T21:30:45.317Z,0.10
2019-03-19T21:33:12.880Z,0.10
2019-03-19T21:35:40.588Z,0.25
2019-03-19T21:38:07.861Z,0.10
2019-03-19T21:40:36.157Z,0.30
2019-03-19T21:43:03.284Z,0.10
2019-03-19T21:45:30.323Z,0.10
2019-03-19T21:47:57.454Z,0.20
2019-03-19T21:50:24.839Z,0.28
2019-03-19T21:52:52.165Z,0.20
2019-03-19T21:55:19.509Z,0.20
2019-03-19T21:57:57.277Z,0.10
2019-03-19T22:00:28.095Z,0.20
2019-03-19T22:02:55.170Z,0.20
2019-03-19T22:05:22.277Z,0.17
2019-03-19T22:07:49.257Z,0.10
2019-03-19T22:10:17.834Z,0.20
2019-03-19T22:12:45.139Z,0.33
2019-03-19T22:15:14.125Z,0.20
2019-03-19T22:17:42.297Z,0.20
2019-03-19T22:20:09.390Z,0.10
2019-03-19T22:22:36.362Z,0.30
2019-03-19T22:25:05.484Z,0.20
2019-03-19T22:27:33.364Z,0.30
2019-03-19T22:30:00.400Z,0.33
2019-03-19T22:32:28.194Z,0.30
2019-03-19T22:34:55.278Z,0.68
2019-03-19T22:37:22.282Z,0.70
2019-03-19T22:39:49.381Z,0.75
2019-03-19T22:42:17.466Z,0.42
2019-03-19T22:44:44.487Z,0.50
2019-03-19T22:47:11.525Z,0.60
2019-03-19T22:49:38.568Z,0.40
2019-03-19T22:52:06.360Z,0.62
2019-03-19T22:54:33.583Z,0.80
2019-03-19T22:57:00.580Z,0.60
2019-03-19T22:59:27.634Z,0.30
2019-03-19T23:01:54.619Z,0.40
2019-03-19T23:04:27.153Z,0.40
2019-03-19T23:06:50.541Z,0.30
2019-03-19T23:09:17.749Z,0.45
2019-03-19T23:11:45.037Z,0.30
2019-03-19T23:14:12.133Z,0.20
2019-03-19T23:16:39.249Z,0.30
2019-03-19T23:19:06.397Z,0.30
2019-03-19T23:21:33.503Z,0.20
2019-03-19T23:24:00.557Z,0.30
2019-03-19T23:26:27.574Z,0.20
2019-03-19T23:28:54.625Z,0.20
2019-03-19T23:31:21.694Z,0.30
2019-03-19T23:33:48.844Z,0.20
2019-03-19T23:36:15.925Z,0.30
2019-03-19T23:38:43.028Z,0.15
2019-03-19T23:41:11.096Z,0.28
2019-03-19T23:43:38.160Z,0.10
2019-03-19T23:46:05.181Z,0.20
2019-03-19T23:48:32.217Z,0.30
2019-03-19T23:50:59.390Z,0.30
2019-03-19T23:53:26.415Z,0.20
2019-03-19T23:55:53.437Z,0.30
2019-03-19T23:58:20.478Z,0.30
